Weather observations for the past three days for
Coffey County Airport
Imperial (Metric)
Date Time (cdt) Wind (mph) Vis. (mi.) Weather Sky Cond. Temperature (ºF) Relative Humidity Wind Chill (°F) Heat Index (°F) Pressure Precipitation (in)
Air Dwpt 6 hour altimeter (in) sea level (mb) 1 hr 3 hr 6 hr
Max. Min.
04 23:35 S 10 10.00 Fair CLR 68 58.8 73% 29.64 0.0
04 23:15 S 10 10.00 Fair CLR 68.4 58.6 71% 29.64 0.0
04 22:55 S 9 10.00 Partly Cloudy SCT070 68 59.9 75% 29.65 0.0
04 22:35 S 9 10.00 Fair CLR 68.2 59.2 73% 29.66 0.0
04 22:15 S 9 10.00 Fair CLR 68 59.4 74% 29.66 0.0
04 21:55 S 10 10.00 Fair CLR 68.9 59.2 71% 29.65 0.0
04 21:35 S 9 10.00 Fair CLR 68 59.2 74% 29.64 0.0
04 21:15 S 8 10.00 Fair CLR 68.5 58.8 71% 29.64 0.0
04 20:55 S 8 10.00 Fair CLR 70.7 58.1 65% 29.62 0.0
04 20:35 S 8 10.00 Fair CLR 71.2 58.1 63% 29.62 0.0
04 20:15 S 8 10.00 Fair CLR 72.9 57.6 59% 29.61 0.0
04 19:55 S 8 10.00 Fair CLR 73.6 57.7 58% 29.6 0.0
04 19:35 S 8 10.00 Fair CLR 74.5 57 55% 29.6 0.0
04 19:15 S 10 10.00 Fair CLR 75.7 56.5 51% 78 29.6 0.0
04 18:55 S 13 G 18 10.00 Fair CLR 77 55.6 82.9 77 48% 79 29.6 0.0
04 18:35 S 17 10.00 Partly Cloudy SCT070 77.9 55 45% 79 29.6 0.0
04 18:15 SW 14 10.00 Fair CLR 78.3 54.7 44% 79 29.61 0.0
04 17:55 SW 15 G 23 10.00 Fair CLR 79 54.9 43% 80 29.61 0.0
04 17:35 SW 15 G 22 10.00 Fair CLR 80.4 55 42% 80 29.59 0.0
04 17:15 S 17 10.00 Fair CLR 81.3 55.6 41% 81 29.59 0.0
04 16:55 SW 10 10.00 Fair CLR 80.8 55.6 42% 81 29.6 0.0
04 16:35 S 8 G 21 10.00 Fair CLR 82.4 55.6 40% 82 29.61 0.0
04 16:15 SW 12 10.00 Fair CLR 82.2 55 39% 82 29.61 0.0
04 15:55 SW 14 G 21 10.00 Fair CLR 82.2 54 38% 81 29.62 0.0
04 15:35 SW 14 10.00 Fair CLR 81.1 53.4 38% 81 29.62 0.0
04 15:15 SW 10 10.00 Fair CLR 80.8 53.4 39% 80 29.63 0.0
04 14:55 SW 14 10.00 Fair CLR 80.1 52 38% 80 29.64 0.0
04 14:35 SW 12 10.00 Fair CLR 81.3 52.7 37% 81 29.64 0.0
04 14:15 SW 9 10.00 Fair CLR 80.6 53.2 39% 80 29.65 0.0
04 13:55 SW 15 G 18 10.00 Fair CLR 79.9 52.5 39% 80 29.65 0.0
04 13:35 SW 13 G 18 10.00 Fair CLR 79.9 53.1 40% 80 29.66 0.0
04 13:15 SW 14 G 20 10.00 Fair CLR 78.4 50.9 38% 79 29.66 0.0
04 12:55 SW 14 G 20 10.00 Fair CLR 78.4 51.8 78.4 60.6 40% 79 29.66 0.0
04 12:35 SW 16 10.00 Fair CLR 77 51.6 41% 78 29.66 0.0
04 12:15 SW 17 G 22 10.00 Fair CLR 76.6 50.5 40% 78 29.66 0.0
04 11:55 SW 14 G 22 10.00 Fair CLR 75.2 50.7 42% 78 29.67 0.0
04 11:35 SW 17 10.00 Fair CLR 75.6 52 44% 78 29.67 0.0
04 11:15 SW 15 G 21 10.00 Fair CLR 74.3 51.4 45% 29.67 0.0
04 10:55 SW 13 10.00 Fair CLR 72.9 51.1 46% 29.67 0.0
04 10:35 SW 15 10.00 Fair CLR 71.6 50.5 48% 29.67 0.0
04 10:15 SW 13 G 18 10.00 Fair CLR 69.8 50.4 50% 29.67 0.0
04 09:55 SW 15 10.00 Fair CLR 67.3 48.7 52% 29.67 0.0
04 09:35 SW 16 G 24 10.00 Fair CLR 66 48 52% 29.67 0.0
04 09:15 SW 18 G 25 10.00 Fair CLR 65.8 47.5 52% 29.66 0.0
04 08:55 SW 20 G 24 10.00 Fair CLR 64.8 47.1 53% 29.67 0.0
04 08:35 SW 21 G 24 10.00 Fair and Breezy CLR 63.9 46.4 53% 29.66 0.0
04 08:15 SW 18 G 22 10.00 Fair CLR 63.7 46.4 54% 29.67 0.0
04 07:55 SW 18 G 24 10.00 Fair CLR 63.9 46.4 53% 29.67 0.0
04 07:35 SW 18 G 22 10.00 Fair CLR 62.4 45.5 54% 29.67 0.0
04 07:15 SW 17 G 24 10.00 Fair CLR 61.3 45.1 55% 29.67 0.0
04 06:55 SW 20 G 24 10.00 Fair CLR 60.4 44.8 67.6 60.3 56% 29.66 0.0
04 06:35 SW 17 G 22 10.00 Fair CLR 60.6 44.6 56% 29.66 0.0
04 06:15 SW 17 10.00 Fair CLR 60.4 44.4 56% 29.67 0.0
04 05:55 S 17 G 24 10.00 Fair CLR 61 44.1 54% 29.67 0.0
04 05:35 S 16 G 22 10.00 Fair CLR 61.2 44.1 54% 29.67 0.0
04 05:15 S 15 10.00 Fair CLR 61.2 44.1 54% 29.68 0.0
04 04:55 S 15 10.00 Fair CLR 61.3 43.9 53% 29.69 0.0
04 04:15 S 16 10.00 Fair CLR 62.6 43.7 50% 29.7 0.0
04 03:55 SW 14 10.00 Fair CLR 62.8 43.5 50% 29.7 0.0
04 03:35 S 16 10.00 Fair CLR 63 43.7 50% 29.71 0.0
04 03:15 SW 16 G 23 10.00 Fair CLR 63.7 43.3 48% 29.71 0.0
04 02:55 SW 21 G 25 10.00 Fair and Breezy CLR 64.4 43 46% 29.72 0.0
04 02:35 SW 16 G 25 10.00 Fair CLR 64.9 43.2 45% 29.72 0.0
04 02:15 SW 18 G 24 10.00 Fair CLR 65.8 43 44% 29.73 0.0
04 01:55 SW 18 G 25 10.00 Fair CLR 66.2 43.2 43% 29.74 0.0
04 01:35 SW 21 G 28 10.00 Fair and Breezy CLR 66.7 43 42% 29.74 0.0
04 01:15 SW 21 G 30 10.00 Fair and Breezy CLR 67.1 42.8 41% 29.75 0.0
04 00:55 SW 22 G 30 10.00 Fair and Breezy CLR 67.8 42.4 77 67.3 40% 29.75 0.0
04 00:35 SW 22 G 31 10.00 Fair and Breezy CLR 67.3 42.8 41% 29.76 0.0
04 00:15 SW 18 G 24 10.00 Fair CLR 68 42.4 40% 29.76 0.0
03 23:55 SW 17 G 24 10.00 Fair CLR 68.2 42.3 39% 29.76 0.0
03 23:35 SW 17 G 23 10.00 Fair CLR 68.7 42.1 38% 29.76 0.0
03 23:15 SW 18 G 26 10.00 Fair CLR 69.3 41.9 37% 29.76 0.0
03 22:55 SW 18 G 24 10.00 Fair CLR 69.8 41 35% 29.77 0.0
03 22:35 SW 17 G 22 10.00 Fair CLR 69.1 41 36% 29.77 0.0
03 22:15 S 16 G 22 10.00 Fair CLR 68.2 41.7 38% 29.77 0.0
03 21:55 S 14 10.00 Fair CLR 67.5 42.8 41% 29.77 0.0
03 21:35 S 14 10.00 Fair CLR 68.4 42.8 40% 29.77 0.0
03 21:15 S 15 10.00 Fair CLR 68.4 43.3 41% 29.76 0.0
03 20:55 S 12 10.00 Fair CLR 69.3 43.9 40% 29.76 0.0
03 20:35 S 12 10.00 Fair CLR 68.9 45.3 43% 29.76 0.0
03 20:15 S 9 10.00 Fair CLR 69.3 46 44% 29.76 0.0
03 19:55 S 9 10.00 Fair CLR 70.5 46.6 43% 29.77 0.0
03 19:35 S 12 10.00 Fair CLR 73.9 45.5 36% 29.77 0.0
03 19:15 S 12 10.00 Fair CLR 75.4 45.9 35% 77 29.78 0.0
03 18:55 S 10 10.00 Fair CLR 77 45.7 82.8 77 33% 78 29.78 0.0
03 18:35 S 12 10.00 Fair CLR 78.3 41.7 27% 78 29.79 0.0
03 18:15 SW 12 G 21 10.00 Fair CLR 79.5 39.6 24% 79 29.79 0.0
03 17:55 SW 15 10.00 Fair CLR 81.1 37.2 21% 79 29.8 0.0
03 17:35 SW 18 G 25 10.00 Fair CLR 81.5 37.6 21% 80 29.8 0.0
03 17:15 SW 9 10.00 Fair CLR 82 40.6 23% 80 29.81 0.0
03 16:55 SW 15 10.00 Fair CLR 82.6 40.1 22% 80 29.81 0.0
03 16:35 SW 18 G 22 10.00 Fair CLR 81.7 40.6 23% 80 29.82 0.0
03 16:15 SW 15 G 21 10.00 Fair CLR 81 42.6 26% 79 29.83 0.0
03 15:55 SW 14 G 23 10.00 Fair CLR 82.4 39.2 21% 80 29.84 0.0
03 15:35 W 15 G 23 10.00 Fair CLR 82.2 41.2 23% 80 29.86 0.0
03 15:15 SW 17 G 22 10.00 Fair CLR 82.4 42.4 24% 80 29.87 0.0
03 14:55 SW 16 G 20 10.00 Fair CLR 81.7 44.2 27% 80 29.87 0.0
03 14:35 W 13 G 18 10.00 Fair CLR 81 44.2 27% 80 29.89 0.0
03 14:15 SW 15 G 22 10.00 Fair CLR 80.6 44.1 28% 79 29.89 0.0
03 13:55 W 14 G 24 10.00 Fair CLR 80.2 43.7 27% 79 29.9 0.0
03 13:35 SW 17 10.00 Fair CLR 79.7 45.3 30% 79 29.91 0.0
03 13:15 SW 15 G 22 10.00 Fair CLR 78.1 46.9 33% 78 29.92 0.0
03 12:55 SW 15 10.00 Fair CLR 76.8 49.3 76.8 44.8 38% 78 29.93 0.0
03 12:35 SW 15 10.00 Fair CLR 75.2 48.9 40% 78 29.94 0.0
03 12:15 SW 16 G 23 10.00 Fair CLR 73.2 47.7 40% 29.94 0.0
03 11:55 SW 14 10.00 Fair CLR 71.8 47.3 42% 29.95 0.0
03 11:35 SW 17 G 23 10.00 Fair CLR 71.2 46.8 42% 29.96 0.0
03 11:15 SW 17 10.00 Fair CLR 69.6 46.2 43% 29.96 0.0
03 10:55 SW 17 10.00 Fair CLR 68 45.7 45% 29.97 0.0
03 10:35 SW 17 10.00 Fair CLR 66.7 45.5 47% 29.97 0.0
03 10:15 SW 16 G 23 10.00 Fair CLR 64.9 44.4 48% 29.98 0.0
03 09:55 SW 17 G 24 10.00 Fair CLR 64 43.9 48% 29.98 0.0
03 09:35 S 16 G 24 10.00 Fair CLR 62.6 43.2 49% 29.98 0.0
03 09:15 SW 20 G 24 10.00 Fair CLR 61 41.5 49% 29.98 0.0
03 08:55 SW 16 G 22 10.00 Fair CLR 59.2 40.6 50% 29.98 0.0
03 08:35 S 17 10.00 Fair CLR 56.3 40.3 55% 29.98 0.0
03 08:15 S 15 10.00 Fair CLR 53.1 39.9 61% 29.99 0.0
03 07:55 S 12 10.00 Fair CLR 50.5 39.2 65% 30 0.0
03 07:35 S 9 10.00 Fair CLR 48.4 38.3 68% 45 30.01 0.0
03 07:15 S 9 10.00 Fair CLR 46.4 37.6 71% 42 30 0.0
03 06:55 S 8 10.00 Fair CLR 44.6 37 47.3 43.9 75% 41 30 0.0
03 06:35 S 9 10.00 Fair CLR 43.9 36.5 75% 39 30 0.0
03 06:15 S 10 10.00 Fair CLR 44.6 35.8 71% 40 30 0.0
03 05:55 S 10 10.00 Fair CLR 45 35.2 69% 40 30.01 0.0
03 05:35 S 10 10.00 Fair CLR 44.8 34.7 68% 40 30.01 0.0
03 05:15 S 10 10.00 Fair CLR 44.2 34.3 68% 39 30.01 0.0
03 04:55 S 10 10.00 Fair CLR 44.1 34 68% 39 30.02 0.0
03 04:35 S 10 10.00 Fair CLR 45.1 33.3 63% 40 30.03 0.0
03 04:15 S 12 10.00 Fair CLR 45.5 32.9 62% 40 30.03 0.0
03 03:55 S 12 10.00 Fair CLR 45 32.9 63% 40 30.03 0.0
03 03:35 S 10 10.00 Fair CLR 45 33.3 64% 40 30.03 0.0
03 03:15 S 9 10.00 Fair CLR 45.3 33.8 64% 41 30.03 0.0
03 02:55 S 10 10.00 Fair CLR 44.6 34.2 67% 40 30.04 0.0
03 02:35 S 9 10.00 Fair CLR 45.3 34.3 66% 41 30.04 0.0
03 02:15 S 12 10.00 Fair CLR 47.1 33.4 59% 42 30.05 0.0
03 01:55 S 10 10.00 Fair CLR 46.9 34 61% 43 30.06 0.0
03 01:35 S 10 10.00 Fair CLR 46.9 34.9 63% 43 30.06 0.0
03 01:15 S 10 10.00 Fair CLR 46.8 35.6 65% 42 30.06 0.0
03 00:55 S 9 10.00 Fair CLR 46.6 35.6 62.1 46 66% 43 30.07 0.0
03 00:35 S 10 10.00 Fair CLR 46.6 36.3 68% 42 30.07 0.0
03 00:15 S 8 10.00 Fair CLR 46.8 36.7 68% 43 30.08 0.0
02 23:55 S 8 10.00 Fair CLR 46.9 37 69% 44 30.08 0.0
02 23:35 S 7 10.00 Fair CLR 48.2 37.9 68% 46 30.09 0.0
02 23:15 S 6 10.00 Fair CLR 48.2 35.6 62% 46 30.09 0.0
02 22:55 S 7 10.00 Fair CLR 50 34.5 55% 48 30.1 0.0
02 22:35 SE 5 10.00 Fair CLR 50.2 34.3 55% 30.1 0.0
02 22:15 SE 3 10.00 Fair CLR 50 35.4 57% 30.1 0.0
02 21:55 SE 3 10.00 Fair CLR 50 37 61% 30.1 0.0
02 21:35 SE 3 10.00 Fair CLR 50 39 66% 30.1 0.0
02 21:15 SE 5 10.00 Fair CLR 52.9 33.3 47% 30.1 0.0
02 20:55 Calm 10.00 Fair CLR 53.6 35.8 51% 30.1 0.0
02 20:35 Calm 10.00 Fair CLR 55.4 40.1 57% 30.1 0.0
02 20:15 Calm 10.00 Fair CLR 59.2 29.1 32% 30.1 0.0
02 19:55 Calm 10.00 Fair CLR 60.3 25.3 26% 30.1 0.0
02 19:35 Calm 10.00 Fair CLR 61 29.8 31% 30.1 0.0
02 19:15 Calm 10.00 Fair CLR 61.7 28.6 29% 30.1 0.0
02 18:55 NW 3 10.00 Fair CLR 62.1 28.6 63.9 59 28% 30.1 0.0
02 18:35 Calm 10.00 Fair CLR 62.4 25.7 25% 30.1 0.0
02 18:15 NW 6 10.00 Fair CLR 62.8 27.9 27% 30.1 0.0
02 17:55 W 3 10.00 Fair CLR 62.8 28 27% 30.11 0.0
02 17:35 Calm 10.00 Fair CLR 63.1 27.7 26% 30.11 0.0
02 17:15 NE 5 10.00 Fair CLR 62.8 28.2 27% 30.12 0.0
02 16:55 N 3 10.00 Fair CLR 63.5 28.2 26% 30.12 0.0
02 16:35 Calm 10.00 Fair CLR 63 28.6 27% 30.13 0.0
02 16:15 NW 6 10.00 Fair CLR 61.9 28.2 28% 30.13 0.0
02 15:55 NW 3 10.00 Fair CLR 62.6 28.8 28% 30.14 0.0
02 15:35 NW 7 10.00 Fair CLR 62.4 29.5 29% 30.15 0.0
02 15:15 N 3 10.00 Fair CLR 60.8 26.8 27% 30.16 0.0
02 14:55 N 7 10.00 Fair CLR 61.3 28.8 29% 30.16 0.0
02 14:35 N 12 G 16 10.00 Fair CLR 61.3 28 28% 30.16 0.0
02 14:15 NE 5 10.00 Fair CLR 60.8 28.8 30% 30.17 0.0
02 13:55 N 3 10.00 Fair CLR 60.1 26.4 28% 30.17 0.0
02 13:35 NE 9 10.00 Fair CLR 59.5 26.4 28% 30.18 0.0
02 13:15 N 8 10.00 Fair CLR 59.5 25.3 27% 30.18 0.0
02 12:55 NE 8 G 16 10.00 Fair CLR 59.5 26.2 59.9 38.7 28% 30.18 0.0
02 12:35 Calm 10.00 Fair CLR 58.5 26.2 29% 30.19 0.0
02 12:15 NE 7 10.00 Fair CLR 58.6 27.7 31% 30.2 0.0
02 11:55 N 5 10.00 Fair CLR 57.4 26.4 31% 30.2 0.0
02 11:35 N 13 G 16 10.00 Fair CLR 56.7 24.3 29% 30.2 0.0
02 11:15 N 10 G 16 10.00 Fair CLR 56.8 25 29% 30.21 0.0
02 10:55 N 14 10.00 Fair CLR 55.9 26.4 32% 30.21 0.0
02 10:35 N 10 10.00 Fair CLR 55.8 25.9 32% 30.21 0.0
02 10:15 N 14 G 20 10.00 Fair CLR 55 24.8 31% 30.21 0.0
02 09:55 N 14 G 18 10.00 Fair CLR 54.5 24.8 32% 30.21 0.0
02 09:35 N 10 10.00 Fair CLR 53.4 27.1 36% 30.2 0.0
02 09:15 N 10 10.00 Fair CLR 52.9 29.3 40% 30.2 0.0
02 08:55 N 7 10.00 Fair CLR 51.1 31.6 48% 30.2 0.0
02 08:35 N 10 10.00 Fair CLR 50 30.9 48% 46 30.2 0.0
02 08:15 N 8 10.00 Fair CLR 48.4 31.1 51% 45 30.19 0.0
02 07:55 N 8 10.00 Fair CLR 46 32.2 59% 42 30.18 0.0
02 07:35 N 7 10.00 Fair CLR 43.9 32.5 64% 40 30.18 0.0
02 07:15 N 6 10.00 Fair CLR 41.2 32.2 70% 38 30.17 0.0
02 06:55 N 6 10.00 Fair CLR 38.5 32.7 47.1 37.8 80% 35 30.16 0.0
02 06:35 N 7 10.00 Fair CLR 38.1 32 79% 34 30.16 0.0
02 06:15 N 8 10.00 Fair CLR 38.7 32.4 78% 34 30.15 0.0
02 05:55 N 7 10.00 Fair CLR 41.2 32 70% 37 30.15 0.0
02 05:35 N 8 10.00 Fair CLR 41.4 31.8 69% 37 30.15 0.0
02 05:15 N 8 10.00 Fair CLR 41.7 31.8 68% 37 30.14 0.0
02 04:55 N 7 10.00 Fair CLR 41.7 32 68% 38 30.14 0.0
02 04:35 N 7 10.00 Fair CLR 41.2 32.4 71% 37 30.13 0.0
02 04:15 N 8 10.00 Partly Cloudy SCT080 41.7 33.8 74% 37 30.13 0.0
02 03:55 N 9 10.00 Partly Cloudy SCT090 42.8 33.8 71% 38 30.13 0.0
02 03:35 N 8 10.00 Partly Cloudy SCT090 40.8 34.7 79% 36 30.12 0.0
02 03:15 N 6 10.00 Partly Cloudy SCT100 41.4 35.1 78% 38 30.12 0.0
02 02:55 N 8 10.00 Mostly Cloudy BKN100 43.2 34.9 73% 39 30.12 0.0
02 02:35 N 8 10.00 Partly Cloudy SCT100 43.2 35.1 73% 39 30.13 0.0
02 02:15 N 7 10.00 Fair CLR 43.2 34.7 72% 40 30.13 0.0
02 01:55 N 8 10.00 Fair CLR 44.8 34.7 68% 41 30.13 0.0
02 01:35 NE 8 10.00 Fair CLR 45.9 34.3 64% 42 30.12 0.0
02 01:15 NE 9 10.00 Fair CLR 46.8 34.3 62% 43 30.13 0.0
02 00:55 NE 9 10.00 Fair CLR 46.9 36.1 60.3 45.9 66% 43 30.12 0.0
02 00:35 NE 8 10.00 Fair CLR 46.2 39 76% 43 30.12 0.0
02 00:15 N 8 10.00 Fair CLR 46.6 39.2 76% 43 30.12 0.0
01 23:55 N 12 10.00 Fair CLR 48.4 39.6 72% 44 30.12 0.0
Date Time (cdt) Wind (mph) Vis. (mi.) Weather Sky Cond. Air Dwpt Max. Min. Relative Humidity Wind Chill (°F) Heat Index (°F) altimeter (in) sea level (mb) 1 hr 3 hr 6 hr
6 hour
Temperature (ºF) Pressure Precipitation (in)